Time;durP1;ratioP1;P1;durP2;ratioP2;P2;SDS_P1;SDS_P2;PMS_P1;PMS_P2;Temp;Humidity;BMP_temperature;BMP_pressure;BME280_temperature;BME280_humidity;BME280_pressure;Samples;Min_cycle;Max_cycle;Signal;HPM_P1;HPM_P2
2024/02/25 00:02:13;;;;;;;40.60;18.33;;;;;;;9.68;91.82;100692.77;123105;1102;104376;-77
2024/02/25 00:04:44;;;;;;;38.10;17.15;;;;;;;9.67;91.93;100676.98;123154;1099;104245;-76
2024/02/25 00:07:15;;;;;;;39.03;17.77;;;;;;;9.66;91.37;100693.52;123172;1099;104344;-77
2024/02/25 00:09:46;;;;;;;35.80;16.63;;;;;;;9.66;91.34;100690.91;123204;1099;104358;-76
2024/02/25 00:12:18;;;;;;;42.70;18.27;;;;;;;9.67;92.17;100697.95;123147;1102;104361;-77
2024/02/25 00:14:49;;;;;;;39.87;17.13;;;;;;;9.66;91.36;100701.38;123139;1099;104379;-76
2024/02/25 00:17:21;;;;;;;46.97;16.57;;;;;;;9.65;91.82;100703.12;123133;1099;104347;-76
2024/02/25 00:19:52;;;;;;;38.00;15.80;;;;;;;9.68;91.50;100700.63;123388;1099;104290;-76
2024/02/25 00:22:24;;;;;;;35.63;16.27;;;;;;;9.68;91.35;100691.88;123196;1099;104242;-77
2024/02/25 00:24:56;;;;;;;36.63;15.93;;;;;;;9.68;91.81;100700.63;123139;1099;104304;-77
2024/02/25 00:27:27;;;;;;;31.20;15.37;;;;;;;9.66;92.05;100691.82;123395;1099;104459;-77
2024/02/25 00:29:58;;;;;;;32.67;15.73;;;;;;;9.67;91.92;100698.83;123294;1099;104322;-76
2024/02/25 00:32:32;;;;;;;36.75;14.83;;;;;;;9.70;91.63;100703.31;123246;1099;104255;-76
2024/02/25 00:35:03;;;;;;;36.30;14.43;;;;;;;9.71;91.98;100711.23;123109;1099;104258;-75
2024/02/25 00:37:34;;;;;;;36.07;15.50;;;;;;;9.70;91.77;100711.17;123238;1099;104348;-77
2024/02/25 00:40:07;;;;;;;32.55;15.20;;;;;;;9.69;91.16;100718.16;123189;1099;104488;-76
2024/02/25 00:42:38;;;;;;;30.20;14.40;;;;;;;9.71;91.79;100718.22;123257;1099;104300;-76
2024/02/25 00:45:10;;;;;;;34.77;14.90;;;;;;;9.69;90.96;100727.72;123186;1099;104348;-76
2024/02/25 00:47:41;;;;;;;29.87;14.37;;;;;;;9.67;91.16;100727.65;123189;1099;104350;-75
2024/02/25 00:50:13;;;;;;;35.70;15.03;;;;;;;9.66;91.31;100725.88;123328;1099;104374;-76
2024/02/25 00:52:44;;;;;;;37.97;14.67;;;;;;;9.65;92.28;100713.59;123475;1099;104344;-78
2024/02/25 00:55:15;;;;;;;35.63;15.40;;;;;;;9.60;91.79;100717.76;123464;1099;104268;-75
2024/02/25 00:57:47;;;;;;;36.53;15.73;;;;;;;9.54;92.18;100713.13;123469;1099;104347;-75
2024/02/25 01:00:20;;;;;;;33.20;13.67;;;;;;;9.52;92.14;100713.89;123511;1099;104255;-76
2024/02/25 01:02:51;;;;;;;34.23;15.10;;;;;;;9.48;92.19;100719.84;123262;1099;104658;-76
2024/02/25 01:05:23;;;;;;;35.37;15.13;;;;;;;9.46;91.74;100718.89;123244;1099;104268;-77
2024/02/25 01:07:55;;;;;;;33.93;13.93;;;;;;;9.47;91.65;100716.34;123497;1099;104344;-77
2024/02/25 01:10:26;;;;;;;36.00;15.10;;;;;;;9.49;92.17;100711.14;123490;1099;104164;-76
2024/02/25 01:12:57;;;;;;;35.50;14.77;;;;;;;9.48;91.99;100710.25;123180;1099;104338;-76
2024/02/25 01:15:28;;;;;;;33.60;14.30;;;;;;;9.49;92.15;100703.27;123370;1099;104293;-76
2024/02/25 01:17:59;;;;;;;31.60;14.70;;;;;;;9.48;91.70;100699.77;123128;1099;104405;-77
2024/02/25 01:20:30;;;;;;;34.00;14.37;;;;;;;9.48;92.32;100701.51;123230;1099;104280;-76
2024/02/25 01:23:01;;;;;;;37.07;15.70;;;;;;;9.48;92.29;100701.51;123155;1099;104239;-76
2024/02/25 01:25:33;;;;;;;35.93;14.30;;;;;;;9.47;91.62;100694.47;123374;1099;104356;-76
2024/02/25 01:28:04;;;;;;;33.50;14.25;;;;;;;9.47;92.19;100697.09;123474;1099;104748;-77
2024/02/25 01:30:36;;;;;;;35.03;14.97;;;;;;;9.47;92.00;100699.70;123397;1099;104296;-77
2024/02/25 01:33:07;;;;;;;36.13;14.70;;;;;;;9.47;91.92;100692.77;123496;1099;104281;-77
2024/02/25 01:35:38;;;;;;;29.13;13.10;;;;;;;9.47;91.84;100694.47;123326;1099;104325;-76
2024/02/25 01:38:12;;;;;;;35.83;15.10;;;;;;;9.46;91.74;100688.34;123528;1099;104387;-76
2024/02/25 01:40:43;;;;;;;36.77;14.63;;;;;;;9.44;91.90;100692.62;123289;1102;104245;-76
2024/02/25 01:43:18;;;;;;;32.23;14.70;;;;;;;9.42;92.23;100689.03;123388;1099;104265;-76
2024/02/25 01:45:49;;;;;;;29.50;14.20;;;;;;;9.40;92.22;100697.67;123454;1099;104217;-76
2024/02/25 01:48:22;;;;;;;35.40;15.10;;;;;;;9.37;91.98;100693.19;123251;1099;104382;-76
2024/02/25 01:50:53;;;;;;;31.80;13.95;;;;;;;9.35;91.93;100693.11;123480;1099;104342;-76
2024/02/25 01:53:25;;;;;;;30.27;12.83;;;;;;;9.34;92.79;100698.28;123486;1099;104290;-75
2024/02/25 01:55:58;;;;;;;34.40;14.90;;;;;;;9.32;93.29;100698.22;123374;1099;104392;-76
2024/02/25 01:58:30;;;;;;;31.40;13.37;;;;;;;9.29;92.40;100698.08;123225;1099;104297;-76
2024/02/25 02:01:02;;;;;;;33.80;14.77;;;;;;;9.28;91.80;100709.38;123279;1099;104287;-77
2024/02/25 02:03:33;;;;;;;33.83;14.77;;;;;;;9.31;91.98;100714.75;123225;1099;104358;-76
2024/02/25 02:06:05;;;;;;;32.87;14.03;;;;;;;9.32;92.02;100713.05;123236;1099;104264;-76
2024/02/25 02:08:37;;;;;;;29.95;12.85;;;;;;;9.33;92.62;100707.87;123483;1099;104270;-75
2024/02/25 02:11:20;;;;;;;34.33;14.53;;;;;;;9.33;92.64;100707.87;123474;1099;104290;-75
2024/02/25 02:13:52;;;;;;;33.90;14.77;;;;;;;9.29;92.19;100705.94;123551;1099;104357;-75
2024/02/25 02:16:25;;;;;;;35.23;13.73;;;;;;;9.28;92.63;100706.75;123359;1099;104351;-76
2024/02/25 02:18:56;;;;;;;37.70;15.10;;;;;;;9.27;91.86;100704.98;123203;1099;104277;-76
2024/02/25 02:21:28;;;;;;;35.83;13.33;;;;;;;9.28;92.36;100709.38;123184;1099;104223;-76
2024/02/25 02:23:59;;;;;;;32.77;13.43;;;;;;;9.28;92.63;100695.39;123160;1102;104304;-76
2024/02/25 02:26:30;;;;;;;29.40;12.93;;;;;;;9.28;91.90;100698.90;123199;1099;104642;-77
2024/02/25 02:29:02;;;;;;;34.20;13.27;;;;;;;9.29;92.43;100703.32;123510;1098;104379;-76
2024/02/25 02:31:33;;;;;;;35.50;13.87;;;;;;;9.29;92.71;100702.44;123454;1099;104357;-75
2024/02/25 02:34:04;;;;;;;36.90;13.83;;;;;;;9.29;91.82;100700.70;123292;1099;104566;-75
2024/02/25 02:36:36;;;;;;;33.57;13.77;;;;;;;9.27;92.42;100711.92;123434;1099;104265;-76
2024/02/25 02:39:07;;;;;;;31.87;13.10;;;;;;;9.27;92.17;100709.30;123231;1099;104310;-75
2024/02/25 02:41:38;;;;;;;32.77;12.83;;;;;;;9.27;91.75;100715.46;123275;1098;104319;-76
2024/02/25 02:44:09;;;;;;;28.20;11.80;;;;;;;9.27;92.27;100715.46;123473;1099;104276;-76
2024/02/25 02:46:44;;;;;;;30.23;12.67;;;;;;;9.26;91.75;100721.52;123400;1099;104385;-76
2024/02/25 02:49:17;;;;;;;31.73;13.27;;;;;;;9.27;92.09;100710.22;123594;1099;104289;-76
2024/02/25 02:51:48;;;;;;;34.10;12.63;;;;;;;9.27;91.88;100706.69;123214;1099;104357;-76
2024/02/25 02:54:19;;;;;;;31.73;11.93;;;;;;;9.28;91.68;100709.38;123240;1099;104281;-76
2024/02/25 02:56:50;;;;;;;32.73;12.27;;;;;;;9.27;91.71;100712.84;123502;1099;104326;-76
2024/02/25 02:59:22;;;;;;;33.77;12.97;;;;;;;9.26;91.79;100716.27;123182;1099;104383;-77
2024/02/25 03:01:53;;;;;;;32.33;12.13;;;;;;;9.24;91.35;100712.70;123150;1099;104242;-76
2024/02/25 03:04:24;;;;;;;36.50;11.53;;;;;;;9.24;92.03;100711.79;123470;1099;104370;-75
2024/02/25 03:06:56;;;;;;;36.30;12.27;;;;;;;9.22;91.85;100706.48;123451;1099;104331;-76
2024/02/25 03:09:27;;;;;;;31.07;12.40;;;;;;;9.21;91.92;100707.33;123429;1099;104304;-76
2024/02/25 03:11:58;;;;;;;33.07;12.30;;;;;;;9.22;91.32;100702.98;123443;1099;104363;-76
2024/02/25 03:14:29;;;;;;;35.97;12.07;;;;;;;9.21;91.90;100707.33;123448;1099;104294;-76
2024/02/25 03:17:00;;;;;;;38.13;12.63;;;;;;;9.20;91.38;100705.53;123201;1099;104252;-76
2024/02/25 03:19:32;;;;;;;31.37;12.00;;;;;;;9.18;91.28;100708.08;123178;1099;104373;-77
2024/02/25 03:22:03;;;;;;;32.97;11.80;;;;;;;9.18;91.85;100707.20;123231;1099;104364;-75
2024/02/25 03:24:36;;;;;;;35.23;12.37;;;;;;;9.14;91.62;100716.61;123104;1099;104386;-77
2024/02/25 03:27:07;;;;;;;36.43;10.77;;;;;;;9.12;91.21;100715.66;123223;1099;104354;-78
2024/02/25 03:29:40;;;;;;;29.00;10.83;;;;;;;9.10;91.80;100704.23;123449;1098;104287;-76
2024/02/25 03:32:11;;;;;;;30.80;11.63;;;;;;;9.11;91.65;100705.12;123299;1099;104265;-75
2024/02/25 03:34:43;;;;;;;30.30;11.93;;;;;;;9.10;91.27;100713.78;123461;1099;104791;-76
2024/02/25 03:37:14;;;;;;;34.77;11.80;;;;;;;9.09;91.24;100715.52;123492;1098;104376;-76
2024/02/25 03:39:46;;;;;;;28.60;11.60;;;;;;;9.10;91.47;100727.80;123234;1099;104348;-76
2024/02/25 03:42:17;;;;;;;33.20;11.90;;;;;;;9.13;91.44;100713.92;123203;1099;104223;-76
2024/02/25 03:44:48;;;;;;;33.93;11.63;;;;;;;9.14;91.22;100711.37;123243;1099;104246;-76
2024/02/25 03:47:24;;;;;;;28.57;10.90;;;;;;;9.14;91.74;100707.87;123160;1099;104400;-76
2024/02/25 03:49:55;;;;;;;33.90;11.03;;;;;;;9.13;91.74;100708.69;123098;1099;104332;-78
2024/02/25 03:52:26;;;;;;;35.83;12.10;;;;;;;9.10;91.18;100703.31;123199;1102;104341;-75
2024/02/25 03:54:57;;;;;;;33.63;11.27;;;;;;;9.09;91.02;100719.88;123199;1099;104302;-76
2024/02/25 03:57:28;;;;;;;29.83;10.63;;;;;;;9.06;91.32;100717.11;123187;1099;104657;-77
2024/02/25 04:00:00;;;;;;;31.73;11.57;;;;;;;9.05;91.04;100725.78;123418;1098;104708;-76
2024/02/25 04:02:31;;;;;;;32.63;11.17;;;;;;;9.03;91.65;100723.09;123455;1099;104514;-75
2024/02/25 04:05:03;;;;;;;30.23;10.93;;;;;;;9.03;91.09;100733.56;123429;1099;104224;-75
2024/02/25 04:07:34;;;;;;;30.80;11.35;;;;;;;9.02;91.01;100733.49;123483;1099;104364;-75
2024/02/25 04:10:06;;;;;;;32.20;11.40;;;;;;;9.02;91.19;100730.88;123330;1099;104277;-75
2024/02/25 04:12:38;;;;;;;34.60;11.07;;;;;;;9.03;91.69;100730.06;123598;1099;104402;-76
2024/02/25 04:15:11;;;;;;;32.13;11.37;;;;;;;9.06;91.46;100732.82;123435;1099;104473;-75
2024/02/25 04:17:42;;;;;;;36.80;10.70;;;;;;;9.07;91.77;100731.97;123627;1099;104255;-75
2024/02/25 04:20:13;;;;;;;32.53;10.90;;;;;;;9.07;91.61;100738.13;123611;1099;104254;-75
2024/02/25 04:22:45;;;;;;;29.00;10.53;;;;;;;9.07;91.63;100732.89;123776;1099;104303;-75
2024/02/25 04:25:16;;;;;;;31.50;11.27;;;;;;;9.08;91.05;100732.05;123631;1098;104723;-77
2024/02/25 04:27:47;;;;;;;36.03;11.20;;;;;;;9.06;91.12;100723.23;123445;1099;104393;-76
2024/02/25 04:30:19;;;;;;;31.90;10.97;;;;;;;9.07;91.18;100730.27;123432;1098;105764;-77
2024/02/25 04:32:50;;;;;;;30.97;10.80;;;;;;;9.07;91.28;100729.35;123476;1099;104229;-76
2024/02/25 04:35:23;;;;;;;26.87;10.17;;;;;;;9.06;91.52;100733.70;123447;1099;104366;-75
2024/02/25 04:37:54;;;;;;;31.07;11.10;;;;;;;9.07;91.55;100732.89;123470;1099;104204;-75
2024/02/25 04:40:26;;;;;;;35.00;11.40;;;;;;;9.07;91.80;100745.06;123387;1099;104396;-76
2024/02/25 04:42:58;;;;;;;24.35;10.00;;;;;;;9.07;91.17;100743.36;123373;1099;104328;-76
2024/02/25 04:45:30;;;;;;;30.00;10.37;;;;;;;9.08;91.12;100737.27;123165;1099;104252;-76
2024/02/25 04:48:01;;;;;;;31.93;11.83;;;;;;;9.08;90.94;100744.25;123454;1099;104262;-76
2024/02/25 04:50:36;;;;;;;33.02;11.00;;;;;;;9.07;91.62;100742.44;123469;1099;104267;-76
2024/02/25 04:53:08;;;;;;;33.58;11.10;;;;;;;9.04;90.94;100744.92;123557;1099;104369;-76
2024/02/25 04:55:39;;;;;;;25.40;10.17;;;;;;;9.04;91.58;100744.92;123539;1099;104368;-76
2024/02/25 04:58:10;;;;;;;29.00;10.47;;;;;;;9.05;90.92;100752.84;123194;1099;104327;-76
2024/02/25 05:00:41;;;;;;;29.57;10.73;;;;;;;9.03;91.55;100753.62;123292;1099;105935;-76
2024/02/25 05:03:12;;;;;;;31.10;11.10;;;;;;;9.01;91.07;100756.17;123127;1099;104333;-75
2024/02/25 05:05:44;;;;;;;30.23;10.83;;;;;;;8.99;91.52;100756.09;123173;1100;104354;-76
2024/02/25 05:08:15;;;;;;;32.87;10.67;;;;;;;8.99;91.23;100765.64;123210;1099;104392;-76
2024/02/25 05:10:46;;;;;;;30.13;10.13;;;;;;;8.99;90.90;100763.03;123325;1099;104257;-77
2024/02/25 05:13:19;;;;;;;30.47;10.23;;;;;;;8.99;91.71;100768.27;123583;1099;104319;-75
2024/02/25 05:15:50;;;;;;;28.57;10.03;;;;;;;8.97;91.20;100768.19;123576;1099;104450;-77
2024/02/25 05:18:21;;;;;;;30.50;10.20;;;;;;;8.97;91.70;100775.16;123520;1099;104299;-75
2024/02/25 05:20:52;;;;;;;27.23;10.43;;;;;;;8.98;91.09;100775.23;123580;1098;104329;-75
2024/02/25 05:23:24;;;;;;;33.43;10.97;;;;;;;8.99;90.87;100778.73;123506;1099;104280;-76
2024/02/25 05:25:57;;;;;;;29.70;11.03;;;;;;;9.01;91.49;100774.49;123482;1099;104248;-75
2024/02/25 05:28:29;;;;;;;31.87;10.67;;;;;;;9.04;91.63;100781.56;123431;1099;104350;-77
2024/02/25 05:31:00;;;;;;;32.17;10.13;;;;;;;9.07;90.96;100782.63;123402;1099;104326;-76
2024/02/25 05:33:32;;;;;;;30.53;10.33;;;;;;;9.08;91.30;100786.13;123425;1099;104284;-76
2024/02/25 05:36:03;;;;;;;27.37;8.97;;;;;;;9.08;91.72;100792.25;123455;1099;104364;-77
2024/02/25 05:38:34;;;;;;;32.57;10.43;;;;;;;9.10;91.20;100797.56;123476;1099;104281;-76
2024/02/25 05:41:07;;;;;;;32.00;10.57;;;;;;;9.12;91.59;100806.41;123283;1099;104347;-77
2024/02/25 05:43:38;;;;;;;27.17;10.10;;;;;;;9.16;90.98;100814.47;123229;1099;104400;-76
2024/02/25 05:46:09;;;;;;;28.20;9.53;;;;;;;9.19;91.57;100816.31;123184;1099;104325;-76
2024/02/25 05:48:41;;;;;;;26.03;9.93;;;;;;;9.21;90.72;100812.06;123108;1099;104245;-76
2024/02/25 05:51:12;;;;;;;28.27;10.47;;;;;;;9.22;90.80;100813.84;123288;1099;104284;-77
2024/02/25 05:53:43;;;;;;;30.20;10.47;;;;;;;9.26;91.38;100821.02;123179;1099;104363;-76
2024/02/25 05:56:15;;;;;;;26.07;9.80;;;;;;;9.28;90.78;100821.09;123419;1099;104459;-77
2024/02/25 05:58:46;;;;;;;26.93;10.67;;;;;;;9.31;91.22;100816.87;123184;1099;104319;-76
2024/02/25 06:01:17;;;;;;;31.33;11.10;;;;;;;9.34;90.62;100819.64;123528;1099;104660;-76
2024/02/25 06:03:48;;;;;;;32.60;11.00;;;;;;;9.37;90.61;100813.66;123456;1099;104268;-76
2024/02/25 06:06:19;;;;;;;25.57;9.63;;;;;;;9.41;90.98;100805.12;123532;1099;104752;-75
2024/02/25 06:08:50;;;;;;;27.33;9.63;;;;;;;9.47;91.06;100810.64;123317;1099;104732;-76
2024/02/25 06:11:21;;;;;;;27.03;9.67;;;;;;;9.50;91.17;100810.74;123623;1099;104245;-76
2024/02/25 06:13:52;;;;;;;26.53;9.47;;;;;;;9.55;90.93;100810.95;123734;1099;104248;-77
2024/02/25 06:16:30;;;;;;;28.97;10.17;;;;;;;9.60;90.85;100806.84;123662;1099;104268;-76
2024/02/25 06:19:02;;;;;;;25.60;9.47;;;;;;;9.64;90.44;100797.38;123665;1099;104351;-75
2024/02/25 06:21:37;;;;;;;26.97;9.53;;;;;;;9.70;90.29;100795.03;123406;1099;104241;-75
2024/02/25 06:24:09;;;;;;;31.07;10.07;;;;;;;9.74;90.64;100798.67;123294;1100;104241;-76
2024/02/25 06:26:43;;;;;;;29.60;9.83;;;;;;;9.78;90.45;100793.63;123282;1099;104255;-75
2024/02/25 06:29:16;;;;;;;31.42;9.95;;;;;;;9.80;89.68;100797.23;123263;1098;104268;-75
2024/02/25 06:31:48;;;;;;;32.58;11.10;;;;;;;9.85;89.78;100808.80;123259;1099;104338;-77
2024/02/25 06:34:19;;;;;;;28.93;10.13;;;;;;;9.90;90.21;100799.41;123559;1099;104357;-76
2024/02/25 06:36:50;;;;;;;32.27;10.00;;;;;;;9.94;89.63;100804.78;123521;1099;104248;-79
2024/02/25 06:39:22;;;;;;;31.33;10.93;;;;;;;9.99;89.79;100830.37;123283;1099;104310;-75
2024/02/25 06:41:53;;;;;;;28.87;9.90;;;;;;;10.06;90.21;100814.05;123298;1099;104357;-76
2024/02/25 06:44:25;;;;;;;29.73;10.27;;;;;;;10.13;89.93;100819.56;123492;1099;104328;-75
2024/02/25 06:46:56;;;;;;;25.97;9.87;;;;;;;10.19;90.33;100825.98;123369;1099;104408;-75
2024/02/25 06:49:28;;;;;;;29.27;9.70;;;;;;;10.24;89.71;100826.19;123257;1099;104272;-76
2024/02/25 06:51:59;;;;;;;28.40;9.93;;;;;;;10.30;89.28;100820.28;123197;1099;104274;-74
2024/02/25 06:54:31;;;;;;;25.87;9.90;;;;;;;10.30;88.57;100830.77;123155;1099;104290;-75
2024/02/25 06:57:03;;;;;;;31.73;9.67;;;;;;;10.31;88.97;100832.58;123272;1099;104286;-75
2024/02/25 06:59:34;;;;;;;29.30;10.20;;;;;;;10.30;88.39;100828.14;123391;1099;104280;-76
2024/02/25 07:02:06;;;;;;;25.67;10.40;;;;;;;10.34;89.39;100828.38;123314;1099;104268;-77
2024/02/25 07:04:38;;;;;;;25.30;10.20;;;;;;;10.39;89.48;100832.11;123215;1099;104217;-76
2024/02/25 07:07:09;;;;;;;30.20;10.37;;;;;;;10.44;88.72;100832.30;123312;1099;104270;-77
2024/02/25 07:09:41;;;;;;;26.77;10.07;;;;;;;10.43;89.13;100820.89;123347;1099;104702;-76
2024/02/25 07:12:12;;;;;;;29.77;10.00;;;;;;;10.42;88.09;100819.13;123185;1100;104396;-76
2024/02/25 07:14:44;;;;;;;29.30;10.63;;;;;;;10.41;88.54;100822.56;123247;1099;104366;-77
2024/02/25 07:17:16;;;;;;;29.20;10.70;;;;;;;10.42;88.84;100816.50;123389;1099;104300;-77
2024/02/25 07:19:47;;;;;;;28.87;10.00;;;;;;;10.47;88.33;100821.94;123265;1099;104402;-76
2024/02/25 07:22:18;;;;;;;28.13;10.03;;;;;;;10.51;88.36;100822.95;123281;1099;104238;-75
2024/02/25 07:24:50;;;;;;;27.90;10.90;;;;;;;10.52;88.08;100817.77;123543;1099;104344;-75
2024/02/25 07:27:21;;;;;;;26.63;10.20;;;;;;;10.55;88.34;100824.84;123495;1099;104268;-76
2024/02/25 07:29:52;;;;;;;30.17;10.43;;;;;;;10.59;88.64;100818.90;123412;1099;104396;-76
2024/02/25 07:32:23;;;;;;;28.85;9.80;;;;;;;10.64;88.66;100825.22;123456;1099;104319;-76
2024/02/25 07:34:55;;;;;;;26.67;9.83;;;;;;;10.69;88.46;100815.83;123364;1099;104422;-76
2024/02/25 07:37:27;;;;;;;24.93;9.00;;;;;;;10.70;87.88;100814.97;123349;1099;104384;-75
2024/02/25 07:39:58;;;;;;;33.03;10.20;;;;;;;10.72;88.43;100823.82;123289;1099;104242;-76
2024/02/25 07:42:30;;;;;;;28.07;9.57;;;;;;;10.76;87.87;100825.72;123258;1099;104284;-76
2024/02/25 07:45:01;;;;;;;29.40;10.13;;;;;;;10.81;87.95;100822.39;123249;1099;104392;-76
2024/02/25 07:47:32;;;;;;;28.67;9.90;;;;;;;10.83;88.10;100832.12;123237;1099;104451;-76
2024/02/25 07:50:03;;;;;;;30.20;9.95;;;;;;;10.88;88.07;100833.20;123251;1099;104383;-75
2024/02/25 07:52:34;;;;;;;28.87;9.50;;;;;;;10.91;87.95;100824.56;123166;1099;104357;-76
2024/02/25 07:55:08;;;;;;;27.43;9.57;;;;;;;10.95;87.29;100821.20;123264;1099;104275;-76
2024/02/25 07:57:41;;;;;;;27.00;10.40;;;;;;;11.00;87.92;100824.92;123527;1099;104335;-76
2024/02/25 08:00:14;;;;;;;25.70;9.07;;;;;;;11.11;88.19;100817.42;123569;1099;104274;-76
2024/02/25 08:02:46;;;;;;;26.75;9.83;;;;;;;11.17;87.98;100819.41;123552;1099;104351;-77
2024/02/25 08:05:17;;;;;;;25.63;9.10;;;;;;;11.24;88.15;100818.81;123491;1099;104277;-75
2024/02/25 08:07:49;;;;;;;31.30;10.10;;;;;;;11.28;87.67;100815.45;123258;1099;104322;-77
2024/02/25 08:10:20;;;;;;;28.40;10.63;;;;;;;11.32;87.31;100814.73;123754;1099;104270;-74
2024/02/25 08:12:54;;;;;;;29.30;9.53;;;;;;;11.33;87.50;100821.80;123397;1099;104275;-74
2024/02/25 08:15:25;;;;;;;29.40;10.03;;;;;;;11.37;87.70;100809.66;123477;1099;107028;-75
2024/02/25 08:17:56;;;;;;;29.67;10.30;;;;;;;11.44;87.95;100806.44;123319;1099;104255;-75
2024/02/25 08:20:27;;;;;;;26.85;9.65;;;;;;;11.48;87.12;100814.48;123265;1099;104640;-74
2024/02/25 08:22:58;;;;;;;31.73;10.07;;;;;;;11.47;87.21;100811.80;123592;1099;104219;-74
2024/02/25 08:25:30;;;;;;;29.33;9.80;;;;;;;11.43;86.98;100810.77;123204;1099;118763;-76
2024/02/25 08:28:01;;;;;;;26.03;9.63;;;;;;;11.42;87.21;100811.62;123223;1102;104395;-75
2024/02/25 08:30:32;;;;;;;28.85;9.35;;;;;;;11.42;87.39;100815.97;123587;1099;104309;-75
2024/02/25 08:33:03;;;;;;;23.77;8.83;;;;;;;11.42;86.94;100809.00;123269;1099;104723;-76
2024/02/25 08:35:34;;;;;;;28.10;9.83;;;;;;;11.42;87.14;100805.45;123639;1099;104281;-75
2024/02/25 08:38:06;;;;;;;25.60;8.97;;;;;;;11.43;86.66;100800.27;123748;1099;104265;-76
2024/02/25 08:40:37;;;;;;;32.97;10.50;;;;;;;11.46;87.34;100804.75;123619;1099;104342;-75
2024/02/25 08:43:09;;;;;;;24.17;9.30;;;;;;;11.48;87.20;100798.72;123617;1099;104293;-75
2024/02/25 08:45:41;;;;;;;28.93;10.00;;;;;;;11.54;87.33;100805.91;123616;1099;104163;-75
2024/02/25 08:48:12;;;;;;;28.70;10.10;;;;;;;11.55;86.39;100798.95;123388;1099;104367;-77
2024/02/25 08:50:43;;;;;;;31.00;9.93;;;;;;;11.56;86.68;100803.34;123255;1099;104412;-76
2024/02/25 08:53:15;;;;;;;29.67;9.87;;;;;;;11.57;86.79;100798.14;123484;1099;104296;-76
2024/02/25 08:55:47;;;;;;;26.20;9.43;;;;;;;11.59;86.62;100801.70;123423;1099;104326;-74
2024/02/25 08:58:18;;;;;;;28.30;10.17;;;;;;;11.61;86.53;100800.05;123528;1099;104265;-75
2024/02/25 09:00:50;;;;;;;23.67;9.40;;;;;;;11.66;86.45;100789.70;123556;1099;104354;-76
2024/02/25 09:03:21;;;;;;;25.43;9.87;;;;;;;11.73;86.30;100782.92;123599;1099;104265;-76
2024/02/25 09:05:52;;;;;;;25.20;9.87;;;;;;;11.82;86.37;100784.13;123265;1099;105716;-76
2024/02/25 09:08:23;;;;;;;25.67;9.37;;;;;;;11.94;86.61;100781.08;123247;1100;104274;-76
2024/02/25 09:10:54;;;;;;;28.27;10.10;;;;;;;12.05;86.12;100778.83;123240;1099;104220;-77
2024/02/25 09:13:26;;;;;;;31.07;9.87;;;;;;;12.16;85.92;100779.19;123284;1099;104281;-76
2024/02/25 09:15:57;;;;;;;25.17;8.77;;;;;;;12.20;85.44;100779.34;123412;1099;104288;-75
2024/02/25 09:18:28;;;;;;;21.80;8.17;;;;;;;12.23;85.81;100783.80;123495;1099;104326;-76
2024/02/25 09:20:59;;;;;;;23.10;8.93;;;;;;;12.23;85.50;100784.71;123564;1099;104274;-75
2024/02/25 09:23:31;;;;;;;27.63;9.57;;;;;;;12.26;85.61;100777.75;123701;1099;104277;-76
2024/02/25 09:26:02;;;;;;;24.60;8.93;;;;;;;12.27;85.53;100769.02;123419;1099;104319;-75
2024/02/25 09:28:33;;;;;;;24.40;9.13;;;;;;;12.33;85.31;100766.59;123193;1099;104344;-75
2024/02/25 09:31:04;;;;;;;27.07;8.97;;;;;;;12.45;85.74;100761.73;123205;1099;104389;-77
2024/02/25 09:33:36;;;;;;;24.13;8.80;;;;;;;12.61;85.68;100762.23;123238;1099;104274;-75
2024/02/25 09:36:07;;;;;;;26.67;10.30;;;;;;;12.81;85.73;100750.56;123174;1099;104399;-76
2024/02/25 09:38:38;;;;;;;26.40;9.47;;;;;;;12.98;85.60;100744.89;123328;1098;104248;-76
2024/02/25 09:41:10;;;;;;;28.30;9.03;;;;;;;13.09;85.01;100748.77;123333;1099;104416;-77
2024/02/25 09:43:42;;;;;;;26.15;8.35;;;;;;;13.24;85.03;100749.18;123338;1099;104412;-76
2024/02/25 09:46:16;;;;;;;25.57;8.70;;;;;;;13.44;84.76;100738.36;123387;1099;104325;-76
2024/02/25 09:48:51;;;;;;;25.35;8.70;;;;;;;13.53;84.77;100749.16;123311;1099;104654;-76
2024/02/25 09:51:24;;;;;;;23.30;8.75;;;;;;;13.59;83.66;100745.81;123350;1099;104274;-76
2024/02/25 09:53:57;;;;;;;19.63;7.77;;;;;;;13.74;84.61;100753.22;123626;1098;104239;-76
2024/02/25 09:56:28;;;;;;;22.77;8.20;;;;;;;13.77;82.95;100742.75;123228;1099;104350;-75
2024/02/25 09:58:59;;;;;;;25.17;9.23;;;;;;;13.82;84.00;100733.20;123261;1099;104265;-75
2024/02/25 10:01:32;;;;;;;22.63;8.50;;;;;;;13.93;84.64;100726.49;123353;1099;104389;-74
2024/02/25 10:04:03;;;;;;;20.00;8.33;;;;;;;13.98;81.70;100724.85;123647;1099;104281;-74
2024/02/25 10:06:39;;;;;;;21.40;8.93;;;;;;;14.02;82.02;100720.53;123623;1099;104313;-75
2024/02/25 10:09:11;;;;;;;24.00;9.40;;;;;;;13.96;81.84;100718.66;123231;1099;104723;-76
2024/02/25 10:11:44;;;;;;;24.50;9.17;;;;;;;13.98;81.41;100722.22;123230;1099;104320;-76
2024/02/25 10:14:18;;;;;;;19.83;8.30;;;;;;;14.03;82.49;100715.30;123543;1098;104245;-76
2024/02/25 10:17:02;;;;;;;24.97;8.83;;;;;;;14.14;83.31;100718.20;123404;1099;104647;-76
2024/02/25 10:19:32;;;;;;;;;;;;;;;14.22;80.87;100715.75;123362;1099;104268;-75
2024/02/25 10:22:11;;;;;;;23.43;8.30;;;;;;;14.31;81.76;100725.66;123392;1099;104437;-75
2024/02/25 10:24:44;;;;;;;22.67;7.80;;;;;;;14.43;82.12;100711.83;123287;1099;104329;-74
2024/02/25 10:27:18;;;;;;;21.27;7.37;;;;;;;14.50;80.06;100716.41;123318;1099;104813;-74
2024/02/25 10:29:57;;;;;;;23.63;7.83;;;;;;;14.61;81.35;100714.05;123528;1099;104270;-76
2024/02/25 10:32:30;;;;;;;21.17;7.97;;;;;;;14.74;80.94;100702.92;123477;1099;104358;-74
2024/02/25 10:35:04;;;;;;;22.23;8.53;;;;;;;14.81;80.90;100704.81;123577;1099;104346;-75
2024/02/25 10:37:35;;;;;;;20.70;7.87;;;;;;;14.85;80.13;100698.75;123559;1099;104312;-75
2024/02/25 10:40:10;;;;;;;18.90;7.60;;;;;;;14.94;80.53;100690.10;123543;1099;104318;-74
2024/02/25 10:42:49;;;;;;;23.93;7.80;;;;;;;15.00;80.41;100692.88;123625;1099;104354;-75
2024/02/25 10:45:22;;;;;;;24.03;8.10;;;;;;;15.14;79.81;100682.59;123313;1102;104325;-74
2024/02/25 10:47:57;;;;;;;21.97;7.43;;;;;;;15.24;78.76;100681.04;123247;1099;105701;-74
2024/02/25 10:50:29;;;;;;;22.97;7.20;;;;;;;15.33;79.98;100681.19;123728;1099;104360;-75
2024/02/25 10:53:02;;;;;;;22.33;8.07;;;;;;;15.36;79.17;100673.31;123948;1099;104389;-76
2024/02/25 10:55:34;;;;;;;23.27;8.00;;;;;;;15.41;78.43;100674.31;123753;1099;104293;-74
2024/02/25 10:58:07;;;;;;;19.37;6.80;;;;;;;15.47;77.63;100665.58;123433;1099;104327;-74
2024/02/25 11:00:40;;;;;;;23.53;8.00;;;;;;;15.52;77.54;100657.73;123455;1099;104300;-74
2024/02/25 11:03:11;;;;;;;20.67;7.20;;;;;;;15.63;76.49;100657.08;123370;1099;104344;-74
2024/02/25 11:05:45;;;;;;;19.10;7.40;;;;;;;15.78;78.17;100655.58;123606;1099;104264;-74
2024/02/25 11:08:29;;;;;;;24.17;8.50;;;;;;;15.89;77.69;100655.77;123623;1099;104190;-74
2024/02/25 11:11:10;;;;;;;21.50;7.60;;;;;;;15.95;77.67;100645.28;123264;1099;104249;-75
2024/02/25 11:13:48;;;;;;;20.93;6.87;;;;;;;16.02;77.19;100657.76;123346;1099;104422;-75
2024/02/25 11:16:35;;;;;;;22.57;7.17;;;;;;;16.01;76.30;100650.67;123314;1099;104252;-76
2024/02/25 11:19:14;;;;;;;18.10;7.10;;;;;;;15.99;74.19;100652.41;123232;1099;111610;-73
2024/02/25 11:21:52;;;;;;;19.10;6.60;;;;;;;15.98;75.35;100650.63;123540;1099;104299;-75
2024/02/25 11:24:46;;;;;;;20.30;6.67;;;;;;;15.91;74.23;100649.64;123388;1099;104382;-74